Monday, January 21, 2019, 5:14 PM EST
Back to Local

KFOK, The Gabreski Airport

Location: East Quogue, NY, United States Lat: 40.85
Local Time: 5:14 PM EST (22:14 GMT) Lon: -72.617
Time Zone: US/Eastern Elev: 65 ft

Show me the last for .
Show Decoded

2019-01-21 16:53 METAR KFOK 212153Z 29016G33KT 10SM OVC047 M10/M18 A3004 RMK AO2 PK WND
                 30034/2114 SLP173 T11001183 $ =
2019-01-21 15:53 METAR KFOK 212053Z 29022G35KT 10SM BKN041 BKN049 M10/M19 A3000 RMK AO2 PK WND
                 31035/2051 SLP159 60000 T11001189 53011 $ =
2019-01-21 14:53 METAR KFOK 211953Z 29020G31KT 10SM BKN044 M09/M19 A2998 RMK AO2 PK WND
                 29036/1904 SLP153 T10941189 $ =
2019-01-21 13:53 METAR KFOK 211853Z 30017G35KT 10SM SCT037 OVC047 M11/M19 A2997 RMK AO2 PK WND
                 31035/1844 SNE07 SLP150 P0000 T11061189 $ =
2019-01-21 13:04 METAR KFOK 211804Z 30021G30KT 7SM -SN BKN033 OVC045 M12/M19 A2996 RMK AO2 PK WND
                 29030/1803 P0000 T11171189 $ =
2019-01-21 12:53 METAR KFOK 211753Z 30021G30KT 4SM -SN BKN027 OVC036 M12/M19 A2996 RMK AO2 PK WND
                 31035/1716 UPB1655E16SNB16 SLP148 P0000 60000 T11221189 11117 21139 53002 $ =
2019-01-21 12:46 METAR KFOK 211746Z 30018G30KT 4SM -SN BKN027 OVC036 M12/M19 A2996 RMK AO2 PK WND
                 31035/1716 UPB1655E16SNB16 P0000 T11221189 $ =
2019-01-21 12:38 METAR KFOK 211738Z 30019G32KT 2 1/2SM -SN BKN025 OVC036 M12/M19 A2996 RMK AO2 PK
                 WND 31035/1716 UPB1655E16SNB16 P0000 T11221189 $ =
2019-01-21 12:22 METAR KFOK 211722Z 30020G35KT 4SM -SN BKN027 OVC036 M12/M19 A2996 RMK AO2 PK WND
                 31035/1716 UPB1655E16SNB16 P0000 T11221189 $ =
2019-01-21 11:53 METAR KFOK 211653Z 29023G33KT 9SM OVC036 M13/M20 A2996 RMK AO2 PK WND 31033/1644
                 SNE1559B19E29 SLP146 P0000 T11281200 $ =
2019-01-21 11:17 METAR KFOK 211617Z 29020G30KT 8SM OVC033 M12/M19 A2996 RMK AO2 PK WND 29030/1616
                 SNE1559 P0000 T11221194 $ =
2019-01-21 10:53 METAR KFOK 211553Z 29020G29KT 3SM -SN BKN021 BKN029 OVC036 M13/M19 A2996 RMK AO2
                 PK WND 30029/1548 SLP146 P0000 T11331189 $ =
2019-01-21 10:50 METAR KFOK 211550Z 30020G29KT 3SM -SN BKN021 OVC029 M13/M19 A2996 RMK AO2 PK WND
                 30029/1548 P0000 $ =
2019-01-21 10:40 METAR KFOK 211540Z 30019G28KT 2 1/2SM -SN BKN019 OVC027 M13/M18 A2996 RMK AO2 PK
                 WND 27028/1533 P0000 T11331183 $ =
2019-01-21 10:24 METAR KFOK 211524Z 29017G25KT 1 1/4SM -SN BKN015 OVC023 M14/M18 A2997 RMK AO2 PK
                 WND 31028/1503 P0000 T11391183 $ =
2019-01-21 10:17 METAR KFOK 211517Z 30018G26KT 3/4SM -SN VV015 M14/M18 A2996 RMK AO2 PK WND
                 31028/1503 P0000 T11391183 $ =
2019-01-21 09:53 METAR KFOK 211453Z 29016G23KT 1SM -SN VV015 M14/M18 A2995 RMK AO2 PK WND
                 30027/1429 SLP144 P0000 60000 T11391183 51028 $ =
2019-01-21 09:46 METAR KFOK 211446Z 30018G26KT 1 1/4SM -SN BKN015 OVC022 M14/M18 A2995 RMK AO2 PK
                 WND 30027/1429 P0000 T11391183 $ =
2019-01-21 09:33 METAR KFOK 211433Z 28014G27KT 1SM -SN VV014 M14/M18 A2994 RMK AO2 PK WND
                 30027/1429 P0000 T11391183 $ =
2019-01-21 09:24 METAR KFOK 211424Z 29013G23KT 3/4SM -SN BKN015 OVC024 M14/M18 A2994 RMK AO2
                 P0000 T11391183 $ =
2019-01-21 09:10 METAR KFOK 211410Z 29016G25KT 1 1/2SM -SN BKN023 OVC034 M13/M19 A2993 RMK AO2
                 P0000 T11331189 $ =
2019-01-21 08:53 METAR KFOK 211353Z 31014G26KT 3SM -SN BKN023 OVC035 M13/M19 A2993 RMK AO2 PK WND
                 29028/1304 SNB08 SLP135 P0000 T11331194 $ =
2019-01-21 08:05 METAR KFOK 211305Z 29018G28KT 8SM BKN027 OVC036 M13/M19 A2991 RMK AO2 PK WND
                 29028/1304 T11331194 $ =
2019-01-21 07:53 METAR KFOK 211253Z 30017G24KT 8SM SCT029 OVC035 M13/M20 A2991 RMK AO2 PK WND
                 29027/1237 SLP128 T11331200 $ =
2019-01-21 06:53 METAR KFOK 211153Z AUTO 30015G22KT 10SM OVC033 M13/M20 A2987 RMK AO2 PK WND
                 30028/1125 SLP116 60000 70082 T11331200 11106 21133 53025 $ =
2019-01-21 05:53 METAR KFOK 211053Z AUTO 31015G25KT 10SM OVC033 M13/M20 A2985 RMK AO2 PK WND
                 31030/1024 SLP108 T11331200 $ =
2019-01-21 04:53 METAR KFOK 210953Z AUTO 30016G28KT 10SM OVC036 M13/M19 A2982 RMK AO2 PK WND
                 30028/0931 SLP096 T11281194 $ =
2019-01-21 04:24 METAR KFOK 210924Z AUTO 31014G28KT 10SM SCT030 OVC037 M12/M19 A2980 RMK AO2 PK
                 WND 32028/0918 T11221189 $ =
2019-01-21 04:00 METAR KFOK 210900Z AUTO 31013G23KT 10SM BKN029 OVC036 M12/M19 A2979 RMK AO2
                 T11171189 $ =
2019-01-21 03:53 METAR KFOK 210853Z AUTO 31016G25KT 10SM SCT029 OVC036 M12/M18 A2979 RMK AO2 PK
                 WND 32027/0841 SNB06E23 SLP089 P0000 60000 T11171183 51014 $ =
2019-01-21 03:48 METAR KFOK 210848Z AUTO 31017G27KT 10SM FEW026 OVC034 M12/M18 A2979 RMK AO2 PK
                 WND 32027/0841 SNB06E23 P0000 $ =
2019-01-21 02:53 METAR KFOK 210753Z AUTO 32018G26KT 10SM BKN026 M12/M17 A2978 RMK AO2 PK WND
                 32026/0749 SLP083 T11171167 $ =
2019-01-21 02:46 METAR KFOK 210746Z AUTO 31012G21KT 10SM FEW020 BKN025 M12/M17 A2978 RMK AO2
                 T11171167 $ =
2019-01-21 02:02 METAR KFOK 210702Z AUTO 32018G25KT 10SM SCT023 BKN030 M12/M17 A2976 RMK AO2
                 T11171172 $ =
2019-01-21 01:53 METAR KFOK 210653Z AUTO 32017G26KT 10SM BKN025 BKN030 M12/M17 A2975 RMK AO2 PK
                 WND 33026/0647 SLP075 T11171172 $ =
2019-01-21 00:53 METAR KFOK 210553Z AUTO 31018G25KT 10SM OVC026 M11/M17 A2973 RMK AO2 PK WND
                 33027/0536 SLP068 T11061167 11033 21106 51037 $ =
2019-01-21 00:18 METAR KFOK 210518Z AUTO 32017G27KT 10SM BKN025 M11/M16 A2971 RMK AO2 PK WND
                 33027/0513 T11061161 $ =
2019-01-21 00:04 METAR KFOK 210504Z AUTO 32015G23KT 10SM SCT025 M11/M16 A2971 RMK AO2 T11061161 $
                 =
2019-01-20 23:53 METAR KFOK 210453Z AUTO 32014G22KT 10SM BKN024 M11/M16 A2971 RMK AO2 PK WND
                 31028/0425 SLP059 T11061156 401111106 $ =
2019-01-20 23:05 METAR KFOK 210405Z AUTO 32019G27KT 10SM BKN020 M10/M15 A2967 RMK AO2 PK WND
                 30027/0403 T11001150 $ =
2019-01-20 22:53 METAR KFOK 210353Z 32015G27KT 10SM FEW020 M09/M16 A2967 RMK AO2 PK WND
                 33033/0301 SLP047 T10941156 $ =
2019-01-20 21:53 METAR KFOK 210253Z 34018G31KT 10SM FEW029 M09/M15 A2962 RMK AO2 PK WND
                 31041/0154 PRESRR SLP031 T10891150 53048 $ =
2019-01-20 20:53 METAR KFOK 210153Z 31027G40KT 10SM SCT026 M08/M14 A2956 RMK AO2 PK WND
                 32043/0126 SLP010 T10781139 $ =
2019-01-20 19:53 METAR KFOK 210053Z 32025G34KT 10SM FEW025 M06/M11 A2952 RMK AO2 PK WND
                 31034/0051 SLP996 T10561106 $ =
2019-01-20 18:53 METAR KFOK 202353Z 32022G32KT 10SM CLR M03/M09 A2948 RMK AO2 PK WND 29034/2333
                 SLP983 60001 T10331094 10111 21033 51056 $ =
2019-01-20 17:53 METAR KFOK 202253Z 32022G33KT 10SM SCT025 BKN060 M02/M08 A2943 RMK AO2 PK WND
                 32033/2245 SLP966 T10221078 $ =
2019-01-20 17:23 METAR KFOK 202223Z 32024G31KT 10SM FEW021 OVC060 M02/M07 A2941 RMK AO2 PK WND
                 33031/2220 T10171067 $ =

Support USWX by starting your Amazon purchase here.